Time;durP1;ratioP1;P1;durP2;ratioP2;P2;SDS_P1;SDS_P2;PMS_P1;PMS_P2;Temp;Humidity;BMP_temperature;BMP_pressure;BME280_temperature;BME280_humidity;BME280_pressure;Samples;Min_cycle;Max_cycle;Signal;HPM_P1;HPM_P2
2021/01/07 00:00:21;;;;;;;32.55;19.65;;;;;;;7.22;75.40;94367.91;4189943;28;20057;-79
2021/01/07 00:02:23;;;;;;;35.35;20.60;;;;;;;7.28;74.95;94356.91;4194545;28;20202;-76
2021/01/07 00:04:24;;;;;;;31.83;20.83;;;;;;;7.29;74.81;94347.28;4195244;28;20102;-79
2021/01/07 00:06:25;;;;;;;31.33;19.88;;;;;;;7.34;74.45;94358.94;4196032;28;20552;-77
2021/01/07 00:08:26;;;;;;;26.80;18.05;;;;;;;7.38;74.28;94368.09;4195713;28;20059;-77
2021/01/07 00:10:28;;;;;;;27.17;18.95;;;;;;;7.47;73.74;94355.16;4185675;28;20435;-78
2021/01/07 00:12:30;;;;;;;24.60;17.38;;;;;;;7.20;74.78;94343.78;4184686;28;20068;-76
2021/01/07 00:14:31;;;;;;;24.42;17.38;;;;;;;7.05;75.19;94345.25;4195503;28;20080;-77
2021/01/07 00:16:32;;;;;;;27.67;18.55;;;;;;;6.94;76.20;94346.28;4194944;28;20746;-78
2021/01/07 00:18:34;;;;;;;30.10;20.48;;;;;;;6.87;76.24;94353.84;4191449;28;20055;-72
2021/01/07 00:20:35;;;;;;;31.02;19.23;;;;;;;6.98;76.56;94356.25;4193277;28;20608;-69
2021/01/07 00:22:37;;;;;;;28.75;20.00;;;;;;;7.13;76.46;94360.97;4194970;28;20079;-69
2021/01/07 00:24:38;;;;;;;27.02;16.60;;;;;;;7.27;75.54;94341.41;4192097;28;20090;-77
2021/01/07 00:26:39;;;;;;;26.05;17.40;;;;;;;7.34;75.39;94350.31;4189469;28;20037;-79
2021/01/07 00:28:40;;;;;;;26.13;16.40;;;;;;;7.35;74.84;94351.91;4191722;28;20083;-78
2021/01/07 00:30:43;;;;;;;27.23;15.10;;;;;;;7.24;74.06;94350.34;4195154;28;20048;-76
2021/01/07 00:32:45;;;;;;;25.63;15.95;;;;;;;6.83;75.82;94355.09;4194525;28;20432;-77
2021/01/07 00:34:46;;;;;;;22.13;15.30;;;;;;;6.91;75.72;94349.19;4194537;28;20116;-78
2021/01/07 00:36:57;;;;;;;23.65;15.48;;;;;;;6.76;76.12;94347.06;4194306;28;20052;-78
2021/01/07 00:38:58;;;;;;;21.88;15.05;;;;;;;6.86;76.29;94354.00;4194186;28;20133;-79
2021/01/07 00:41:00;;;;;;;23.77;15.57;;;;;;;6.96;76.08;94349.56;4194061;28;20036;-78
2021/01/07 00:43:02;;;;;;;22.17;15.35;;;;;;;6.92;75.87;94341.22;4183461;28;20110;-76
2021/01/07 00:45:04;;;;;;;21.77;13.50;;;;;;;6.85;75.09;94321.94;4205775;28;20078;-77
2021/01/07 00:47:05;;;;;;;23.20;15.15;;;;;;;6.95;75.93;94340.94;4194335;28;20056;-76
2021/01/07 00:49:07;;;;;;;21.27;13.93;;;;;;;6.99;76.36;94336.25;4194910;28;20052;-78
2021/01/07 00:51:08;;;;;;;19.20;12.40;;;;;;;7.04;74.42;94357.47;4194473;28;20048;-76
2021/01/07 00:53:10;;;;;;;18.00;11.55;;;;;;;6.76;74.98;94308.00;4194247;28;20071;-76
2021/01/07 00:55:11;;;;;;;19.02;12.05;;;;;;;6.84;75.29;94348.94;4192491;28;20044;-79
2021/01/07 00:57:12;;;;;;;15.88;11.15;;;;;;;6.95;74.87;94355.75;4194153;28;20529;-77
2021/01/07 00:59:14;;;;;;;15.02;10.50;;;;;;;6.67;74.45;94326.28;4194603;28;20056;-77
2021/01/07 01:01:15;;;;;;;13.30;10.25;;;;;;;6.56;74.61;94341.13;4190321;28;20145;-78
2021/01/07 01:03:16;;;;;;;19.15;12.38;;;;;;;6.53;75.13;94340.59;4194828;28;20117;-78
2021/01/07 01:05:17;;;;;;;16.45;10.57;;;;;;;6.71;75.06;94348.44;4195168;28;20049;-77
2021/01/07 01:07:19;;;;;;;15.43;10.27;;;;;;;6.57;74.66;94324.53;4192878;28;20048;-78
2021/01/07 01:09:20;;;;;;;17.70;10.43;;;;;;;6.65;74.52;94333.41;4194023;28;20071;-78
2021/01/07 01:11:21;;;;;;;16.52;10.43;;;;;;;6.79;74.31;94325.13;4193404;28;20066;-77
2021/01/07 01:13:23;;;;;;;15.98;10.98;;;;;;;6.97;74.30;94332.97;4185901;28;20053;-77
2021/01/07 01:15:24;;;;;;;14.13;9.80;;;;;;;6.96;73.63;94316.53;4190589;28;20048;-77
2021/01/07 01:17:25;;;;;;;15.63;10.07;;;;;;;6.82;74.41;94327.44;4194944;28;20126;-78
2021/01/07 01:19:26;;;;;;;14.20;10.38;;;;;;;6.74;74.29;94304.72;4193003;28;20118;-78
2021/01/07 01:21:27;;;;;;;17.80;11.30;;;;;;;6.57;75.54;94315.91;4193507;28;20052;-77
2021/01/07 01:23:29;;;;;;;14.13;10.13;;;;;;;6.70;74.75;94316.38;4194340;28;20052;-78
2021/01/07 01:25:30;;;;;;;15.48;10.93;;;;;;;6.86;74.81;94320.16;4193410;28;20056;-77
2021/01/07 01:27:31;;;;;;;14.80;10.05;;;;;;;7.01;74.63;94313.47;4195441;28;20094;-79
2021/01/07 01:29:32;;;;;;;15.38;10.40;;;;;;;7.04;73.68;94299.34;4191747;28;20052;-76
2021/01/07 01:31:38;;;;;;;13.75;10.00;;;;;;;7.01;74.21;94312.66;4178942;28;20057;-77
2021/01/07 01:33:39;;;;;;;15.40;9.93;;;;;;;7.11;74.21;94314.22;4170520;28;20420;-78
2021/01/07 01:35:40;;;;;;;15.30;9.98;;;;;;;6.92;73.86;94306.53;4189808;28;20185;-74
2021/01/07 01:37:43;;;;;;;16.45;10.25;;;;;;;6.84;74.38;94296.03;4193243;28;20476;-78
2021/01/07 01:39:44;;;;;;;15.02;10.75;;;;;;;6.90;73.88;94296.25;4193948;28;20048;-77
2021/01/07 01:41:47;;;;;;;18.40;11.15;;;;;;;6.75;74.37;94292.53;4192020;28;20045;-77
2021/01/07 01:43:48;;;;;;;14.45;10.13;;;;;;;6.70;74.40;94285.16;4187605;28;20080;-77
